Time;durP1;ratioP1;P1;durP2;ratioP2;P2;SDS_P1;SDS_P2;PMS_P1;PMS_P2;Temp;Humidity;BMP_temperature;BMP_pressure;BME280_temperature;BME280_humidity;BME280_pressure;Samples;Min_cycle;Max_cycle;Signal;HPM_P1;HPM_P2
2022/06/20 00:00:24;;;;;;;10.70;1.90;;;13.20;99.90;;;;;;5067846;28;20052;-80
2022/06/20 00:02:53;;;;;;;7.63;1.63;;;13.20;99.90;;;;;;5063394;28;20483;-80
2022/06/20 00:05:23;;;;;;;7.80;1.90;;;13.20;99.90;;;;;;5049479;28;20091;-80
2022/06/20 00:07:50;;;;;;;5.70;1.70;;;13.10;99.90;;;;;;5053256;28;20048;-80
2022/06/20 00:10:18;;;;;;;11.17;1.77;;;13.20;99.90;;;;;;5047230;28;20502;-80
2022/06/20 00:12:45;;;;;;;9.20;2.23;;;13.10;99.90;;;;;;5046064;28;20041;-80
2022/06/20 00:15:19;;;;;;;10.00;1.90;;;13.10;99.90;;;;;;5027009;28;20045;-80
2022/06/20 00:17:45;;;;;;;6.43;2.00;;;13.10;99.90;;;;;;5054203;28;20091;-81
2022/06/20 00:20:13;;;;;;;9.13;1.90;;;13.10;99.90;;;;;;5053095;28;20511;-80
2022/06/20 00:22:40;;;;;;;8.40;2.07;;;13.00;99.90;;;;;;5052174;28;20086;-81
2022/06/20 00:25:06;;;;;;;10.70;2.07;;;13.00;99.90;;;;;;5078652;28;20058;-80
2022/06/20 00:27:32;;;;;;;11.40;2.00;;;12.90;99.90;;;;;;5045979;28;20041;-81
2022/06/20 00:29:58;;;;;;;6.70;1.60;;;12.90;99.90;;;;;;5042659;28;20417;-80
2022/06/20 00:32:24;;;;;;;6.87;1.80;;;12.80;99.90;;;;;;5059384;28;20052;-80
2022/06/20 00:34:49;;;;;;;6.77;2.00;;;12.80;99.90;;;;;;5056811;28;20049;-80
2022/06/20 00:37:19;;;;;;;6.20;1.80;;;12.70;99.90;;;;;;5041155;28;20044;-80
2022/06/20 00:39:48;;;;;;;9.47;1.70;;;12.70;99.90;;;;;;5050308;28;20437;-80
2022/06/20 00:42:14;;;;;;;7.53;1.80;;;12.70;99.90;;;;;;5033267;28;20048;-80
2022/06/20 00:44:44;;;;;;;5.47;1.73;;;12.60;99.90;;;;;;5041928;28;20414;-80
2022/06/20 00:47:12;;;;;;;8.87;1.73;;;12.60;99.90;;;;;;5040308;28;20055;-81
2022/06/20 00:49:45;;;;;;;5.47;1.80;;;12.50;99.90;;;;;;5072774;28;20049;-79
2022/06/20 00:52:16;;;;;;;8.17;1.93;;;12.50;99.90;;;;;;5055594;28;20036;-78
2022/06/20 00:54:49;;;;;;;7.40;2.00;;;12.50;99.90;;;;;;5048331;28;20048;-79
2022/06/20 00:57:19;;;;;;;12.68;2.72;;;12.50;99.90;;;;;;5040507;28;20510;-81
2022/06/20 00:59:52;;;;;;;7.53;2.33;;;12.50;99.90;;;;;;5057082;28;20044;-80
2022/06/20 01:02:24;;;;;;;10.23;2.07;;;12.50;99.90;;;;;;5040154;28;20043;-80
2022/06/20 01:04:55;;;;;;;8.90;2.03;;;12.60;99.90;;;;;;5083419;28;20143;-81
2022/06/20 01:07:26;;;;;;;9.27;2.00;;;12.60;99.90;;;;;;5046084;28;20045;-80
2022/06/20 01:09:58;;;;;;;9.70;2.20;;;12.60;99.90;;;;;;5024355;28;20567;-81
2022/06/20 01:12:26;;;;;;;8.63;2.47;;;12.70;99.90;;;;;;5048907;28;20506;-81
2022/06/20 01:14:52;;;;;;;6.73;2.17;;;12.80;99.90;;;;;;5039930;28;20052;-80
2022/06/20 01:17:24;;;;;;;10.43;2.03;;;12.80;99.90;;;;;;5040755;28;20410;-80
2022/06/20 01:19:58;;;;;;;11.27;2.53;;;12.80;99.90;;;;;;5062911;28;20040;-81
2022/06/20 01:22:38;;;;;;;9.37;2.20;;;12.80;99.90;;;;;;5038216;28;20062;-81
2022/06/20 01:25:42;;;;;;;13.77;2.13;;;12.90;99.90;;;;;;5025711;28;20578;-80
2022/06/20 01:28:12;;;;;;;14.98;2.20;;;12.90;99.90;;;;;;5058996;28;20048;-80
2022/06/20 01:30:43;;;;;;;11.00;2.20;;;12.90;99.90;;;;;;5057447;28;20052;-81
2022/06/20 01:33:11;;;;;;;9.03;2.03;;;12.90;99.90;;;;;;5040332;28;20075;-80
2022/06/20 01:38:23;;;;;;;8.50;2.10;;;12.90;99.90;;;;;;5061561;28;20115;-80
2022/06/20 01:43:36;;;;;;;6.63;1.80;;;12.80;99.90;;;;;;5071449;28;20058;-81
2022/06/20 01:46:09;;;;;;;11.03;2.33;;;12.80;99.90;;;;;;5056124;28;20048;-79
2022/06/20 01:48:38;;;;;;;9.13;2.20;;;12.80;99.90;;;;;;5036271;28;20040;-78
2022/06/20 01:51:08;;;;;;;9.10;2.40;;;12.70;99.90;;;;;;5069453;28;20032;-80
2022/06/20 01:53:35;;;;;;;6.87;2.10;;;12.70;99.90;;;;;;5054362;28;20414;-80
2022/06/20 01:56:01;;;;;;;6.67;2.30;;;12.60;99.90;;;;;;5024166;28;20048;-81
2022/06/20 01:58:32;;;;;;;6.43;1.87;;;12.60;99.90;;;;;;5048746;28;20495;-79
2022/06/20 02:01:01;;;;;;;7.73;2.37;;;12.60;99.90;;;;;;5052422;28;20040;-80
2022/06/20 02:03:31;;;;;;;6.67;2.10;;;12.60;99.90;;;;;;5052765;28;20052;-81
2022/06/20 02:05:57;;;;;;;5.50;2.27;;;12.60;99.90;;;;;;5031728;28;20037;-79
2022/06/20 02:08:24;;;;;;;9.27;2.10;;;12.50;99.90;;;;;;5041222;28;20039;-80
2022/06/20 02:10:55;;;;;;;8.87;2.43;;;12.50;99.90;;;;;;5025507;28;20056;-80
2022/06/20 02:13:22;;;;;;;7.93;2.10;;;12.50;99.90;;;;;;5063325;28;20494;-81
2022/06/20 02:15:53;;;;;;;6.17;2.53;;;12.40;99.90;;;;;;5056332;28;20142;-80
2022/06/20 02:18:21;;;;;;;6.37;1.83;;;12.40;99.90;;;;;;5045786;28;20457;-80
2022/06/20 02:20:50;;;;;;;9.13;2.63;;;12.40;99.90;;;;;;5038900;28;20049;-80
2022/06/20 02:23:20;;;;;;;9.10;2.90;;;12.30;99.90;;;;;;5056005;28;20055;-80
2022/06/20 02:25:49;;;;;;;11.23;2.30;;;12.20;99.90;;;;;;5038661;28;20033;-80
2022/06/20 02:28:20;;;;;;;9.67;2.47;;;12.20;99.90;;;;;;5038995;28;20067;-80
2022/06/20 02:30:45;;;;;;;11.83;3.10;;;12.10;99.90;;;;;;5038814;28;20040;-80
2022/06/20 02:33:16;;;;;;;15.23;3.27;;;12.10;99.90;;;;;;5047677;28;20055;-80
2022/06/20 02:35:43;;;;;;;9.00;2.77;;;12.10;99.90;;;;;;5021873;28;20062;-79
2022/06/20 02:38:09;;;;;;;13.13;2.60;;;12.00;99.90;;;;;;5054757;28;20056;-78
2022/06/20 02:40:41;;;;;;;9.90;2.83;;;11.90;99.90;;;;;;5055072;28;20131;-79
2022/06/20 02:43:12;;;;;;;11.53;3.13;;;11.90;99.90;;;;;;5046036;28;20457;-78
2022/06/20 02:45:39;;;;;;;7.77;2.53;;;11.90;99.90;;;;;;5046261;28;20548;-79
2022/06/20 02:48:08;;;;;;;13.47;2.60;;;11.90;99.90;;;;;;5036597;28;20059;-79
2022/06/20 02:50:37;;;;;;;11.57;3.10;;;11.90;99.90;;;;;;5023234;28;20068;-79
2022/06/20 02:53:07;;;;;;;10.60;2.87;;;11.90;99.90;;;;;;5039500;28;20063;-79
2022/06/20 02:55:35;;;;;;;7.43;2.57;;;11.80;99.90;;;;;;5039897;28;20052;-79
2022/06/20 02:58:06;;;;;;;7.73;2.20;;;11.80;99.90;;;;;;5051457;28;20048;-79
2022/06/20 03:00:36;;;;;;;8.07;2.40;;;11.70;99.90;;;;;;5038808;28;20040;-79
2022/06/20 03:03:17;;;;;;;9.83;2.93;;;11.70;99.90;;;;;;5039793;28;20051;-79
2022/06/20 03:05:43;;;;;;;8.20;2.77;;;11.60;99.90;;;;;;5039873;28;20095;-79
2022/06/20 03:08:14;;;;;;;6.20;2.00;;;11.60;99.90;;;;;;5038873;28;20071;-79
2022/06/20 03:10:43;;;;;;;8.87;2.70;;;11.60;99.90;;;;;;5039438;28;20059;-79
2022/06/20 03:13:11;;;;;;;8.07;2.13;;;11.50;99.90;;;;;;5032249;28;20498;-78
2022/06/20 03:15:39;;;;;;;7.10;2.40;;;11.50;99.90;;;;;;5031991;28;20049;-78
2022/06/20 03:18:06;;;;;;;7.83;2.90;;;11.40;99.90;;;;;;5025143;28;20045;-79
2022/06/20 03:20:33;;;;;;;8.47;2.70;;;11.30;99.90;;;;;;5035813;28;20458;-79
2022/06/20 03:23:05;;;;;;;9.10;3.13;;;11.30;99.90;;;;;;5042273;28;20471;-79
2022/06/20 03:25:32;;;;;;;9.17;3.00;;;11.30;99.90;;;;;;5046556;28;20044;-78
2022/06/20 03:27:58;;;;;;;8.17;2.50;;;11.30;99.90;;;;;;5036693;28;20048;-79
2022/06/20 03:30:29;;;;;;;10.30;3.07;;;11.20;99.90;;;;;;5034750;28;20083;-78
2022/06/20 03:32:56;;;;;;;7.50;2.70;;;11.20;99.90;;;;;;5046138;28;20044;-78
2022/06/20 03:35:22;;;;;;;11.80;3.13;;;11.20;99.90;;;;;;5071178;28;20052;-79
2022/06/20 03:37:48;;;;;;;7.93;2.97;;;11.20;99.90;;;;;;5070694;28;20029;-78
2022/06/20 03:40:15;;;;;;;7.73;2.93;;;11.20;99.90;;;;;;5034566;28;20446;-78
2022/06/20 03:42:43;;;;;;;8.47;2.73;;;11.10;99.90;;;;;;5036465;28;20050;-78
2022/06/20 03:45:09;;;;;;;9.50;3.33;;;11.10;99.90;;;;;;5037605;28;20102;-79
2022/06/20 03:47:41;;;;;;;7.87;3.20;;;11.00;99.90;;;;;;5048668;28;20510;-79
2022/06/20 03:50:11;;;;;;;8.40;3.07;;;11.00;99.90;;;;;;5053126;28;20128;-78
2022/06/20 03:52:42;;;;;;;8.53;3.37;;;11.00;99.90;;;;;;5029007;28;20044;-78
2022/06/20 03:55:13;;;;;;;7.37;2.50;;;11.00;99.90;;;;;;5037663;28;20040;-78
2022/06/20 03:57:46;;;;;;;7.27;2.97;;;11.00;99.90;;;;;;5020812;28;20044;-78
2022/06/20 04:00:15;;;;;;;5.20;2.50;;;11.10;99.90;;;;;;5036915;28;20076;-78
2022/06/20 04:02:54;;;;;;;6.87;2.60;;;11.10;99.90;;;;;;5053559;28;20940;-78
2022/06/20 04:05:26;;;;;;;7.97;2.90;;;11.10;99.90;;;;;;5041870;28;20066;-79
2022/06/20 04:07:56;;;;;;;7.40;3.13;;;11.10;99.90;;;;;;5020624;28;20407;-78
2022/06/20 04:13:20;;;;;;;5.57;2.50;;;11.10;99.90;;;;;;5042583;28;20052;-79
2022/06/20 04:15:49;;;;;;;7.90;2.90;;;11.10;99.90;;;;;;5045553;28;20079;-78
2022/06/20 04:18:28;;;;;;;8.57;2.80;;;11.10;99.90;;;;;;5029176;28;20041;-78
2022/06/20 04:21:00;;;;;;;7.93;2.90;;;11.10;99.90;;;;;;5035976;28;20032;-79
2022/06/20 04:23:32;;;;;;;7.50;3.03;;;11.10;99.90;;;;;;5065235;28;20041;-79
2022/06/20 04:26:00;;;;;;;8.47;3.20;;;11.10;99.90;;;;;;5028990;28;20131;-79
2022/06/20 04:28:34;;;;;;;7.03;2.60;;;11.10;99.90;;;;;;5038146;28;20048;-79
2022/06/20 04:31:04;;;;;;;7.00;2.75;;;11.20;99.90;;;;;;5026065;28;20163;-79
2022/06/20 04:33:36;;;;;;;6.30;2.90;;;11.20;99.90;;;;;;5054359;28;20413;-79
2022/06/20 04:36:13;;;;;;;8.13;3.17;;;11.30;99.90;;;;;;5037737;28;20061;-79
2022/06/20 04:38:47;;;;;;;6.63;3.03;;;11.40;99.90;;;;;;5062146;28;20059;-78
2022/06/20 04:41:18;;;;;;;11.48;3.58;;;11.40;99.90;;;;;;5052511;28;20041;-79
2022/06/20 04:43:52;;;;;;;10.47;4.10;;;11.40;99.90;;;;;;5019649;28;20482;-79
2022/06/20 04:46:24;;;;;;;12.32;3.70;;;11.60;99.90;;;;;;5037450;28;20449;-79
2022/06/20 04:48:50;;;;;;;10.70;3.40;;;11.60;99.90;;;;;;5020491;28;20139;-79
2022/06/20 04:51:19;;;;;;;11.40;3.80;;;11.70;99.90;;;;;;5038110;28;20045;-79
2022/06/20 04:53:46;;;;;;;8.50;3.20;;;11.80;99.90;;;;;;5061061;28;20051;-79
2022/06/20 04:56:16;;;;;;;10.57;3.80;;;11.90;99.90;;;;;;5061887;28;20464;-79
2022/06/20 04:58:53;;;;;;;12.03;3.10;;;12.00;99.90;;;;;;5036589;28;20044;-79
2022/06/20 05:01:20;;;;;;;7.17;3.00;;;12.00;99.90;;;;;;5052768;28;20411;-79
2022/06/20 05:03:56;;;;;;;12.90;3.27;;;12.10;99.90;;;;;;5051991;28;20090;-78
2022/06/20 05:06:24;;;;;;;12.53;3.77;;;12.10;99.90;;;;;;5057368;28;20494;-78
2022/06/20 05:08:53;;;;;;;10.70;3.23;;;12.20;99.90;;;;;;5050960;28;20494;-77
2022/06/20 05:11:23;;;;;;;7.97;3.33;;;12.20;99.90;;;;;;5055428;28;20474;-79
2022/06/20 05:13:55;;;;;;;11.40;3.90;;;12.30;99.90;;;;;;5031446;28;20048;-79
2022/06/20 05:16:24;;;;;;;13.13;3.40;;;12.40;99.90;;;;;;5051195;28;20049;-77
2022/06/20 05:18:56;;;;;;;12.30;3.40;;;12.40;99.90;;;;;;5024196;28;20041;-78
2022/06/20 05:21:27;;;;;;;9.60;3.33;;;12.50;99.90;;;;;;5043139;28;20041;-79
2022/06/20 05:23:57;;;;;;;7.00;2.50;;;12.60;99.90;;;;;;5083758;28;20044;-79
2022/06/20 05:26:26;;;;;;;9.77;2.90;;;12.60;99.90;;;;;;5043900;28;20540;-79
2022/06/20 05:28:57;;;;;;;13.13;3.40;;;12.70;99.90;;;;;;5038645;28;20041;-78
2022/06/20 05:31:30;;;;;;;11.40;3.40;;;12.80;99.90;;;;;;5040328;28;20174;-79
2022/06/20 05:34:00;;;;;;;12.05;3.40;;;13.00;99.90;;;;;;5057351;28;20052;-78
2022/06/20 05:36:29;;;;;;;12.07;3.40;;;13.70;99.90;;;;;;5055743;28;20051;-77
2022/06/20 05:38:58;;;;;;;9.17;2.77;;;14.20;99.90;;;;;;5054946;28;20413;-79
2022/06/20 05:41:24;;;;;;;14.90;3.10;;;14.30;99.90;;;;;;5043920;28;20096;-80
2022/06/20 05:43:50;;;;;;;12.97;3.37;;;14.30;99.90;;;;;;5053692;28;20048;-79
2022/06/20 05:46:23;;;;;;;8.87;2.70;;;14.30;99.90;;;;;;5029692;28;20056;-78
2022/06/20 05:48:52;;;;;;;9.63;3.00;;;14.30;99.90;;;;;;5055919;28;20041;-78
2022/06/20 05:51:21;;;;;;;11.37;3.17;;;14.30;99.90;;;;;;5052310;28;20051;-79
2022/06/20 05:53:51;;;;;;;10.60;3.23;;;14.30;99.90;;;;;;5042836;28;20106;-79
2022/06/20 05:56:24;;;;;;;8.67;2.53;;;14.30;99.90;;;;;;5025443;28;20053;-79
2022/06/20 05:58:51;;;;;;;10.53;2.87;;;14.20;99.90;;;;;;5053353;28;20048;-79
2022/06/20 06:01:23;;;;;;;12.73;3.63;;;14.20;99.90;;;;;;5034147;28;20055;-78
2022/06/20 06:03:57;;;;;;;10.60;2.70;;;14.30;99.90;;;;;;5046557;28;20413;-78
2022/06/20 06:06:28;;;;;;;14.30;3.33;;;14.40;99.90;;;;;;5055846;28;20113;-76
2022/06/20 06:08:59;;;;;;;10.47;3.57;;;14.50;99.90;;;;;;5055389;28;20076;-76
2022/06/20 06:11:30;;;;;;;11.37;3.13;;;14.50;99.90;;;;;;5038315;28;20052;-75
2022/06/20 06:14:01;;;;;;;12.23;3.30;;;14.50;99.90;;;;;;5066000;28;20345;-75
2022/06/20 06:16:49;;;;;;;13.63;3.80;;;14.50;99.90;;;;;;5053726;28;20060;-77
2022/06/20 06:19:21;;;;;;;12.63;3.77;;;14.50;99.90;;;;;;5027992;28;20106;-77
2022/06/20 06:21:49;;;;;;;12.77;3.97;;;14.60;99.90;;;;;;5022089;28;20117;-78
2022/06/20 06:24:19;;;;;;;13.37;3.67;;;14.60;99.90;;;;;;5054003;28;20098;-77
2022/06/20 06:26:46;;;;;;;14.77;4.03;;;14.60;99.90;;;;;;5036671;28;20040;-77
2022/06/20 06:29:19;;;;;;;14.03;3.97;;;14.60;99.90;;;;;;5029775;28;20045;-78
2022/06/20 06:31:49;;;;;;;8.50;3.53;;;14.70;99.90;;;;;;5067247;28;20066;-77
2022/06/20 06:34:20;;;;;;;15.67;3.53;;;14.80;99.90;;;;;;5016658;28;20956;-75
2022/06/20 06:36:50;;;;;;;12.03;4.17;;;14.80;99.90;;;;;;5027530;28;20039;-77
2022/06/20 06:39:22;;;;;;;11.47;3.83;;;14.90;99.90;;;;;;5070129;28;20064;-79
2022/06/20 06:41:54;;;;;;;13.83;4.37;;;15.10;99.90;;;;;;5040141;28;20139;-77
2022/06/20 06:44:30;;;;;;;10.83;3.60;;;15.30;99.90;;;;;;5070386;28;20522;-77
2022/06/20 06:46:58;;;;;;;14.80;4.50;;;15.40;99.90;;;;;;5037185;28;20041;-77
2022/06/20 06:49:31;;;;;;;13.77;3.83;;;15.40;99.90;;;;;;5025470;28;20040;-75
2022/06/20 06:52:05;;;;;;;17.07;4.33;;;15.40;99.90;;;;;;5019497;28;20055;-77
2022/06/20 06:54:46;;;;;;;16.13;4.40;;;15.30;99.90;;;;;;5049419;28;20078;-76
2022/06/20 06:57:19;;;;;;;14.53;3.63;;;15.20;99.90;;;;;;5040956;28;20044;-79
2022/06/20 06:59:48;;;;;;;;;;;15.00;99.90;;;;;;5044168;28;20083;-76
2022/06/20 07:02:20;;;;;;;10.60;3.27;;;15.00;99.90;;;;;;5039860;28;19924;-77
2022/06/20 07:04:51;;;;;;;16.63;3.93;;;15.10;99.90;;;;;;5055427;28;20044;-76
2022/06/20 07:07:23;;;;;;;11.23;3.60;;;15.40;99.90;;;;;;5014359;28;20045;-79
2022/06/20 07:09:50;;;;;;;12.13;3.50;;;15.70;99.90;;;;;;5024988;28;20086;-77
2022/06/20 07:12:23;;;;;;;9.07;3.40;;;16.00;99.90;;;;;;5060182;28;21468;-78
2022/06/20 07:14:57;;;;;;;12.20;3.70;;;16.30;99.90;;;;;;5040090;28;20053;-79
2022/06/20 07:17:32;;;;;;;12.90;3.17;;;16.50;99.90;;;;;;5076764;28;20040;-75
2022/06/20 07:20:00;;;;;;;11.33;3.23;;;16.70;99.90;;;;;;5033599;28;20410;-77
2022/06/20 07:22:26;;;;;;;10.47;3.50;;;16.90;99.90;;;;;;5022629;28;20064;-77
2022/06/20 07:24:53;;;;;;;10.17;2.97;;;16.90;99.90;;;;;;5023096;28;20138;-76
2022/06/20 07:27:23;;;;;;;11.20;2.90;;;17.00;99.90;;;;;;5037624;28;20059;-75
2022/06/20 07:29:53;;;;;;;12.83;3.30;;;17.00;99.90;;;;;;5019842;28;20462;-77
2022/06/20 07:32:25;;;;;;;10.83;3.00;;;17.00;99.90;;;;;;5038790;28;20040;-76
2022/06/20 07:34:54;;;;;;;10.67;3.43;;;16.90;99.90;;;;;;5047618;28;20136;-78
2022/06/20 07:37:26;;;;;;;12.20;2.70;;;16.80;99.90;;;;;;5036099;28;20643;-76
2022/06/20 07:39:57;;;;;;;9.53;2.70;;;16.60;99.90;;;;;;5071722;28;20047;-78
2022/06/20 07:42:29;;;;;;;11.33;3.40;;;16.50;99.90;;;;;;5032085;28;22232;-77
2022/06/20 07:45:00;;;;;;;11.35;3.40;;;16.40;99.90;;;;;;5018449;28;20048;-76
2022/06/20 07:47:33;;;;;;;10.57;3.53;;;16.20;99.90;;;;;;5017454;28;20406;-77
2022/06/20 07:50:03;;;;;;;11.85;2.60;;;16.10;99.90;;;;;;5033166;28;20048;-76
2022/06/20 07:52:34;;;;;;;13.97;3.40;;;16.10;99.90;;;;;;5021611;28;20060;-78
2022/06/20 07:55:06;;;;;;;9.83;3.23;;;16.10;99.90;;;;;;5035938;28;20068;-75
2022/06/20 07:57:36;;;;;;;11.30;3.20;;;16.10;99.90;;;;;;5041984;28;20048;-79
2022/06/20 08:00:06;;;;;;;11.33;3.30;;;16.20;99.90;;;;;;5019090;28;20041;-79
2022/06/20 08:02:39;;;;;;;9.20;2.60;;;16.30;99.90;;;;;;5036720;28;20078;-78
2022/06/20 08:05:10;;;;;;;13.47;3.33;;;16.40;99.90;;;;;;5068654;28;20648;-78
2022/06/20 08:07:41;;;;;;;13.00;3.43;;;16.60;99.90;;;;;;5052205;28;20306;-79
2022/06/20 08:10:15;;;;;;;7.63;2.60;;;16.80;99.90;;;;;;5025396;28;20371;-76
2022/06/20 08:12:47;;;;;;;7.25;2.50;;;17.10;99.90;;;;;;5038549;28;20044;-77
2022/06/20 08:15:19;;;;;;;8.00;2.33;;;17.20;99.90;;;;;;5021215;28;20405;-75
2022/06/20 08:17:47;;;;;;;9.07;2.67;;;17.20;99.90;;;;;;5025106;28;20040;-77
2022/06/20 08:20:14;;;;;;;9.67;2.53;;;17.00;99.90;;;;;;5016244;28;20049;-77
2022/06/20 08:22:47;;;;;;;9.43;2.63;;;16.90;99.90;;;;;;5032430;28;20041;-77
2022/06/20 08:25:21;;;;;;;8.43;2.70;;;16.80;99.90;;;;;;5066169;28;20048;-77
2022/06/20 08:27:52;;;;;;;12.23;3.07;;;16.90;99.90;;;;;;5027108;28;20048;-78
2022/06/20 08:30:31;;;;;;;8.33;3.03;;;17.00;99.90;;;;;;5020348;28;20063;-77
2022/06/20 08:33:02;;;;;;;10.00;2.73;;;17.30;99.90;;;;;;5027191;28;20072;-78
2022/06/20 08:35:32;;;;;;;13.77;2.33;;;17.60;99.90;;;;;;5034314;28;20126;-79
2022/06/20 08:38:05;;;;;;;8.80;2.40;;;17.80;99.90;;;;;;5025393;28;20058;-75
2022/06/20 08:40:44;;;;;;;11.67;2.60;;;17.70;99.90;;;;;;5036454;28;20051;-79
2022/06/20 08:43:28;;;;;;;9.47;2.83;;;17.60;99.90;;;;;;5046356;28;20040;-78
2022/06/20 08:46:19;;;;;;;9.30;2.72;;;17.60;99.90;;;;;;5023851;28;20387;-79
2022/06/20 08:49:16;;;;;;;12.63;2.33;;;17.60;99.90;;;;;;5043176;28;20048;-80
2022/06/20 08:52:13;;;;;;;9.27;2.20;;;17.50;99.90;;;;;;5025481;28;20060;-78
2022/06/20 08:55:21;;;;;;;6.83;2.10;;;17.40;99.90;;;;;;5031482;28;20055;-79
2022/06/20 08:57:57;;;;;;;9.00;2.33;;;17.60;99.90;;;;;;5037587;28;20044;-79
2022/06/20 09:00:30;;;;;;;11.50;2.30;;;17.80;99.90;;;;;;5030476;28;20533;-77
2022/06/20 09:03:28;;;;;;;8.03;2.30;;;18.00;99.90;;;;;;5070575;28;20047;-78
2022/06/20 09:06:07;;;;;;;6.83;1.93;;;18.10;99.90;;;;;;5060102;28;20041;-76
2022/06/20 09:08:54;;;;;;;8.37;2.00;;;18.00;99.90;;;;;;5041947;28;20045;-77
2022/06/20 09:11:42;;;;;;;5.57;1.70;;;17.90;99.90;;;;;;5059799;28;20048;-81
2022/06/20 09:14:20;;;;;;;6.67;1.80;;;18.00;99.90;;;;;;5027575;28;20100;-79
2022/06/20 09:16:54;;;;;;;6.03;1.80;;;18.10;99.90;;;;;;5029109;28;20704;-78
2022/06/20 09:19:39;;;;;;;12.67;1.77;;;18.40;99.90;;;;;;5036268;28;20057;-79
2022/06/20 09:22:10;;;;;;;;;;;18.60;99.90;;;;;;5038293;28;20049;-78
2022/06/20 09:24:53;;;;;;;8.30;1.70;;;18.70;99.90;;;;;;5036299;28;19943;-78
2022/06/20 09:27:27;;;;;;;5.47;1.43;;;18.80;99.90;;;;;;5056830;28;20044;-78
2022/06/20 09:30:05;;;;;;;6.27;1.50;;;18.70;99.90;;;;;;5041241;28;20049;-77
2022/06/20 09:32:53;;;;;;;5.40;1.53;;;18.70;99.90;;;;;;5022249;28;20040;-82
2022/06/20 09:36:07;;;;;;;4.13;1.20;;;18.90;99.90;;;;;;5026291;28;20089;-76
2022/06/20 09:38:52;;;;;;;6.70;1.63;;;19.50;99.90;;;;;;5036932;28;20057;-78
2022/06/20 09:41:24;;;;;;;5.03;1.63;;;19.70;99.90;;;;;;5010499;28;20049;-78
2022/06/20 09:44:00;;;;;;;5.70;1.30;;;19.70;99.50;;;;;;5039713;28;20040;-78
2022/06/20 09:46:33;;;;;;;4.17;1.40;;;19.70;99.10;;;;;;5057734;28;20095;-78
2022/06/20 09:49:12;;;;;;;4.13;1.63;;;19.70;99.20;;;;;;5041756;28;20060;-81
2022/06/20 09:51:47;;;;;;;7.53;1.80;;;19.40;98.80;;;;;;5025828;28;20041;-79
2022/06/20 09:54:22;;;;;;;8.47;1.77;;;19.30;98.80;;;;;;5026558;28;20041;-77
2022/06/20 09:56:57;;;;;;;7.50;1.87;;;19.20;99.20;;;;;;5040791;28;20096;-80
2022/06/20 09:59:33;;;;;;;4.73;1.67;;;19.20;99.40;;;;;;5041432;28;20044;-79
2022/06/20 10:02:09;;;;;;;4.00;1.60;;;19.40;99.70;;;;;;5010062;28;20311;-77
2022/06/20 10:04:46;;;;;;;6.03;1.70;;;19.70;99.50;;;;;;5024506;28;20048;-79
2022/06/20 10:07:17;;;;;;;4.43;1.50;;;19.70;99.00;;;;;;5070966;28;20572;-78
2022/06/20 10:09:51;;;;;;;5.37;1.83;;;19.80;98.70;;;;;;5008517;28;20036;-79
2022/06/20 10:12:23;;;;;;;9.20;1.85;;;19.80;97.60;;;;;;5038168;28;20048;-78
2022/06/20 10:14:59;;;;;;;5.63;1.50;;;19.80;97.80;;;;;;5025432;28;20480;-79
2022/06/20 10:17:33;;;;;;;7.30;1.53;;;19.90;97.70;;;;;;5053826;28;20245;-78
2022/06/20 10:20:05;;;;;;;;;;;19.90;97.90;;;;;;5025970;28;20048;-78
2022/06/20 10:22:37;;;;;;;6.90;2.13;;;20.30;98.40;;;;;;5035590;28;19945;-79
2022/06/20 10:25:33;;;;;;;6.83;1.90;;;20.90;98.80;;;;;;5032196;28;20048;-77
2022/06/20 10:28:11;;;;;;;8.30;1.63;;;21.60;98.00;;;;;;5025809;28;20178;-76
2022/06/20 10:30:46;;;;;;;6.83;1.87;;;21.60;96.10;;;;;;5050539;28;20051;-78
2022/06/20 10:33:38;;;;;;;6.17;1.70;;;21.70;94.00;;;;;;5054239;28;20037;-78
2022/06/20 10:36:17;;;;;;;5.23;1.20;;;21.90;94.60;;;;;;5056198;28;20052;-76
2022/06/20 10:38:52;;;;;;;6.30;1.77;;;21.70;94.00;;;;;;5046668;28;20056;-77
2022/06/20 10:41:25;;;;;;;10.53;1.93;;;21.30;94.10;;;;;;5036133;28;20056;-78
2022/06/20 10:44:03;;;;;;;6.40;1.77;;;20.90;94.40;;;;;;5014479;28;20136;-78
2022/06/20 10:46:39;;;;;;;6.80;1.60;;;20.80;95.20;;;;;;5041570;28;20130;-79
2022/06/20 10:49:27;;;;;;;9.20;2.10;;;21.20;95.90;;;;;;5038625;28;20049;-78
2022/06/20 10:52:01;;;;;;;10.27;1.80;;;21.80;97.20;;;;;;5044175;28;20040;-78
2022/06/20 10:54:40;;;;;;;6.87;1.70;;;22.40;96.00;;;;;;5048475;28;20406;-78
2022/06/20 10:57:17;;;;;;;12.07;1.80;;;22.20;94.20;;;;;;5025505;28;20029;-78
2022/06/20 10:59:51;;;;;;;6.70;1.70;;;21.80;94.60;;;;;;5064309;28;20053;-80
2022/06/20 11:02:29;;;;;;;5.40;1.40;;;21.50;94.90;;;;;;5052622;28;20060;-79
2022/06/20 11:05:07;;;;;;;7.43;1.97;;;21.10;95.20;;;;;;5035890;28;20053;-81
2022/06/20 11:07:40;;;;;;;6.20;1.90;;;21.00;96.90;;;;;;5055974;28;20051;-79
2022/06/20 11:10:19;;;;;;;6.17;1.50;;;21.60;97.00;;;;;;5038191;28;20043;-78
2022/06/20 11:12:55;;;;;;;8.07;1.60;;;21.90;94.30;;;;;;5063945;28;20036;-80
2022/06/20 11:15:32;;;;;;;7.90;1.70;;;22.00;94.70;;;;;;5027221;28;20522;-78
2022/06/20 11:18:06;;;;;;;7.63;1.47;;;22.40;94.60;;;;;;5022014;28;20130;-76
2022/06/20 11:20:38;;;;;;;4.97;1.33;;;23.00;93.80;;;;;;5053285;28;20060;-78
2022/06/20 11:23:13;;;;;;;4.73;1.50;;;23.40;91.90;;;;;;5034517;28;20044;-81
2022/06/20 11:25:50;;;;;;;3.77;1.50;;;23.40;89.80;;;;;;5014537;28;20396;-78
2022/06/20 11:28:39;;;;;;;7.88;1.40;;;23.30;90.00;;;;;;5040868;28;20517;-79
2022/06/20 11:31:10;;;;;;;5.00;1.40;;;22.90;89.70;;;;;;5032080;28;20525;-78
2022/06/20 11:34:08;;;;;;;5.27;1.60;;;22.50;90.50;;;;;;5051224;28;20046;-78
2022/06/20 11:36:49;;;;;;;6.57;1.60;;;22.10;90.90;;;;;;5045748;28;20529;-79
2022/06/20 11:39:28;;;;;;;6.20;1.70;;;22.10;92.40;;;;;;5044849;28;20503;-79
2022/06/20 11:41:56;;;;;;;5.87;1.53;;;22.80;92.60;;;;;;5027858;28;20123;-78
2022/06/20 11:44:43;;;;;;;7.47;1.70;;;23.00;91.30;;;;;;5021241;28;20055;-79
2022/06/20 11:47:36;;;;;;;8.23;2.20;;;22.80;90.20;;;;;;5041203;28;20106;-77
2022/06/20 11:50:23;;;;;;;6.43;1.93;;;22.20;90.60;;;;;;5048126;28;20043;-79
2022/06/20 11:52:56;;;;;;;4.35;1.50;;;21.80;91.30;;;;;;5030263;28;20548;-79
2022/06/20 11:55:29;;;;;;;5.97;1.77;;;21.70;91.60;;;;;;5044172;28;20178;-77
2022/06/20 11:58:00;;;;;;;7.10;1.85;;;21.60;92.10;;;;;;5039948;28;20426;-77
2022/06/20 12:00:37;;;;;;;6.33;2.40;;;21.70;92.30;;;;;;5043170;28;20060;-77
2022/06/20 12:03:12;;;;;;;6.43;1.60;;;22.20;92.30;;;;;;5017154;28;20415;-80
2022/06/20 12:05:47;;;;;;;7.63;2.07;;;22.40;91.50;;;;;;5081090;28;20045;-79
2022/06/20 12:08:24;;;;;;;5.93;1.63;;;22.10;91.00;;;;;;5034531;28;20045;-79
2022/06/20 12:10:53;;;;;;;7.03;1.90;;;21.70;91.00;;;;;;5018077;28;20519;-81
2022/06/20 12:13:29;;;;;;;6.80;1.93;;;21.40;91.50;;;;;;5049142;28;20113;-79
2022/06/20 12:16:06;;;;;;;7.03;2.00;;;21.30;92.00;;;;;;5007579;28;20055;-79
2022/06/20 12:23:18;;;;;;;5.97;1.70;;;21.20;92.10;;;;;;5030842;28;20059;-77
2022/06/20 12:24:18;;;;;;;6.70;1.90;;;21.00;92.50;;;;;;5052374;28;20048;-84
2022/06/20 12:26:44;;;;;;;6.10;1.90;;;21.00;92.60;;;;;;5052206;28;20044;-77
2022/06/20 12:29:15;;;;;;;8.30;1.70;;;20.90;92.60;;;;;;5031909;28;20051;-78
2022/06/20 12:31:45;;;;;;;6.30;1.57;;;21.00;92.80;;;;;;5049365;28;20044;-77
2022/06/20 12:34:27;;;;;;;6.70;1.80;;;21.00;93.00;;;;;;5038440;28;20041;-77
2022/06/20 12:36:59;;;;;;;7.23;2.10;;;20.90;93.40;;;;;;5037579;28;20040;-77
2022/06/20 12:39:30;;;;;;;9.63;1.90;;;21.20;93.80;;;;;;5033824;28;20086;-85
2022/06/20 12:42:00;;;;;;;9.83;1.97;;;21.60;93.50;;;;;;5047673;28;20063;-78
2022/06/20 12:44:43;;;;;;;5.97;1.80;;;21.50;92.80;;;;;;5039657;28;20055;-77
2022/06/20 12:47:34;;;;;;;5.05;1.70;;;21.20;92.10;;;;;;5054243;28;20043;-79
2022/06/20 12:50:09;;;;;;;5.93;1.90;;;20.80;92.20;;;;;;5084758;28;20044;-79
2022/06/20 12:52:43;;;;;;;7.67;1.77;;;20.50;92.70;;;;;;5046846;28;20045;-79
2022/06/20 12:55:26;;;;;;;11.80;1.83;;;20.40;93.00;;;;;;5052104;28;20060;-79
2022/06/20 12:58:16;;;;;;;4.63;1.55;;;20.50;93.80;;;;;;5051801;28;20036;-77
2022/06/20 13:00:46;;;;;;;5.43;1.63;;;21.10;93.60;;;;;;5030451;28;20040;-79
2022/06/20 13:03:36;;;;;;;6.27;1.77;;;21.60;93.10;;;;;;5033861;28;20044;-83
2022/06/20 13:06:24;;;;;;;4.00;1.33;;;22.20;93.20;;;;;;5064114;28;20135;-77
2022/06/20 13:09:00;;;;;;;5.97;1.63;;;22.50;92.40;;;;;;5050114;28;20505;-78
2022/06/20 13:11:35;;;;;;;5.80;1.60;;;22.60;92.40;;;;;;5035595;28;20045;-81
2022/06/20 13:14:40;;;;;;;7.97;1.73;;;22.70;91.50;;;;;;5040469;28;20037;-79
2022/06/20 13:17:21;;;;;;;5.43;1.43;;;22.30;90.80;;;;;;5056244;28;20130;-77
2022/06/20 13:20:16;;;;;;;6.03;1.97;;;22.10;91.50;;;;;;5051910;28;20037;-78
2022/06/20 13:22:49;;;;;;;5.20;1.63;;;21.70;91.60;;;;;;5050436;28;20053;-77
2022/06/20 13:25:31;;;;;;;4.90;1.55;;;21.40;92.10;;;;;;5048091;28;20064;-79
2022/06/20 13:28:08;;;;;;;4.73;1.70;;;21.50;92.20;;;;;;5047443;28;20039;-80